Dickinson Theodore Roosevelt Regional Airport
KDIK : now visible

Airfield :











YOU CAN JOIN US ON...

 
LOGIN :

Register | Disclaimer

   EN    FR    IT 

 









Legend :    VFR   Marginal VFR   IFR   Intensive IFR   Very Intensive IFR
Visi :
Ceiling :
>= 8 km
>= 3000ft
5 to 8 km
1000 to 3000 ft
1500m to 5 km
500 to 1000 ft
800 to 1500m
200 to 500 ft
< 800m
< 200 ft
Symbols :   Thunderstorms  Fog  Heavy snow  Heavy precipitations  Wind > 20 kt







- Airport Elevation : 2592 ft


KDIK - Dickinson Theodore Roosevelt Regional

CURRENT METAR :
  • 201956Z AUTO 00000KT 10SM CLR 20/17 A2972 RMK AO2 LTG DSNT NE AND E RAE07 SLP048 P0000 T02000172

EXPIRED METARs :
  • 201856Z AUTO 07013KT 10SM -RA SCT006 SCT080 BKN110 18/17 A2969 RMK AO2 PK WND 09032/1813 LTG DSNT NE AND SE RAE30B49 TSE1759 SLP042 P0001 T01780167
  • 201843Z AUTO 35008KT 8SM BKN004 18/17 A2971 RMK AO2 PK WND 09032/1813 LTG DSNT NE-SE RAE30 TSE1759 CIG 003V008 P0001 T01780167
  • 201805Z AUTO 06010KT 6SM VCTS -RA BR FEW008 OVC100 17/17 A2973 RMK AO2 LTG DSNT E-S TSE1759 P0000 T01720167
  • 201756Z AUTO 06012KT 6SM -TSRA BR FEW005 FEW050 OVC100 17/17 A2973 RMK AO2 WSHFT 1707 LTG DSNT NE-S RAE22B31 TSE10B39 SLP054 P0002 60006 T01720167 10189 20156 58019
  • 201745Z AUTO 11013G19KT 7SM -TSRA SCT003 BKN090 OVC110 16/16 A2973 RMK AO2 WSHFT 1707 LTG DSNT NE-S RAE22B31 TSE10B39 P0001 T01610161
  • 201731Z AUTO 06014G19KT 7SM VCTS -RA SCT003 BKN100 BKN120 16/16 A2970 RMK AO2 WSHFT 1707 LTG DSNT NE AND S RAE22B31 TSE10 P0001 T01610156
  • 201710Z AUTO 01014G18KT 6SM VCTS -RA BR SCT005 BKN095 BKN110 16/15 A2972 RMK AO2 LTG DSNT NE AND S TSE10 PRESFR P0001 T01610150

TAF KDIK
Valid from the 20 at 18:00 until the 21 at 18:00 UTC


201731Z 2018/2118 01014G18KT 6SM -RA BR SCT005 BKN110
TEMPO 2018/2021 3SM +TSRA BKN020CB
FM202100 31007KT P6SM VCTS SCT016CB OVC060
FM210800 28008KT 6SM -SHRA BR VCTS SCT012CB OVC035
FM211400 29015G23KT 5SM SHRA BR OVC007
No reported NOTAMs for that airfield.



MET'MAP, your aeronautical weather chart ! - Copyright ORBIFLY December 2007 - Disclaimer

ORBIFLY MET'MAP TEAM :

Programming & Development : Alexandra Zaïnal
Concept & Development : Baudouin d'Aumeries
Co-Development & Prog : Marc-Olivier Méhu
Technical & hardware support : Manuel Goepfert

Contact : metmap@orbifly.com




SOURCES & CREDITS :

   NOAA       Earth
Advisory